Latest Coastal Weather Observations for Coolangatta

IDQ60701

Issued at 10:31 am EST Friday 31 March 2017 (issued every 10 minutes, with the page automatically refreshed every 10 minutes)

About coastal observations | Map of coastal stations | Coastal observations for QLD | Marine services | Other Formats
Station Details ID: 040717 Name: COOLANGATTA Lat: -28.17 Lon: 153.51 Height: 4.0 m
Data from the previous 72 hours. | See also: Recent months at Coolangatta
Date/Time
EST
Temp
°C
Wind Pressure Rain since
9am
mm
Weather Cloud Vis
km
Sea
Height
m
Swell
Dir  Spd
kts
Gust
kts
hPa Trend Height
m
Period
s
Dir
31/10:30am 24.3 SSW 19 31 1006.0 - 0.0 - Partly cloudy 10 - - - -
31/10:00am 24.2 SSW 20 33 1005.7 - 0.0 - Partly cloudy 10 - - - -
31/09:31am 23.6 SSW 15 28 1005.5 - 0.0 - Partly cloudy 10 - - - -
31/09:30am 23.4 SSW 15 23 1005.6 - 0.0 - Partly cloudy 10 - - - -
31/09:00am 22.5 SSW 19 33 1005.1 - 146.2 - Cloudy 10 - - - -
31/08:30am 22.1 SSW 21 35 1004.7 - 146.2 - Partly cloudy 10 - - - -
31/08:00am 22.2 SSW 19 32 1004.3 - 146.2 - Partly cloudy 10 - - - -
31/07:30am 22.1 SSW 21 37 1003.6 - 146.2 - Partly cloudy 10 - - - -
31/07:00am 22.2 SSW 24 36 1002.6 - 146.2 - Partly cloudy 10 - - - -
31/06:30am 21.6 SSW 24 42 1002.2 - 146.2 - Partly cloudy 10 - - - -
31/06:00am 21.5 SSW 24 35 1001.8 - 146.2 - Cloudy 10 - - - -
31/05:30am 21.4 SSW 22 33 1001.3 - 146.2 - Cloudy 10 - - - -
31/05:00am 20.6 SSW 22 34 1000.8 - 146.2 - Partly cloudy 10 - - - -
31/04:30am 20.3 SSW 23 35 1000.0 - 146.2 - Partly cloudy 10 - - - -
31/04:15am 20.3 SSW 23 33 999.7 - 146.2 - Partly cloudy 10 - - - -
31/04:07am 20.4 SSW 21 32 999.6 - 146.2 - Partly cloudy 8 - - - -
31/04:00am 20.5 SSW 23 39 999.7 - 146.0 - Partly cloudy 5 - - - -
31/03:30am 22.9 S 20 33 998.3 - 143.6 - Cloudy 4 - - - -
31/03:00am 22.9 S 23 36 997.7 - 141.0 Showers Cloudy 4 - - - -
31/02:33am 23.1 S 25 40 996.8 - 137.2 - Partly cloudy 6 - - - -
31/02:30am 23.3 S 24 38 996.7 - 137.0 - Cloudy 9 - - - -
31/02:09am 23.2 S 24 34 996.1 - 137.0 - Partly cloudy 10 - - - -
31/02:07am 23.2 S 25 34 996.0 - 137.0 - Partly cloudy 10 - - - -
31/02:00am 23.3 S 22 33 996.1 - 136.8 - Cloudy 7 - - - -
31/01:51am 23.9 SSE 19 29 996.1 - 136.6 - Cloudy 6 - - - -
31/01:30am 23.9 S 14 20 995.9 - 136.2 - Partly cloudy 9 - - - -
31/01:00am 24.2 SSE 11 15 996.1 - 136.0 - Cloudy 10 - - - -
31/12:30am 24.2 S 9 11 996.7 - 135.8 - Partly cloudy 10 - - - -
31/12:16am 24.3 ESE 9 12 996.8 - 135.8 - Partly cloudy 10 - - - -
31/12:00am 24.2 ESE 11 18 997.1 - 135.8 Rain Cloudy 2 - - - -
 
Date/Time
EST
Temp
°C
Wind Pressure Rain since
9am
mm
Weather Cloud Vis
km
Sea
Height
m
Swell
Dir  Spd
kts
Gust
kts
hPa Trend Height
m
Period
s
Dir
30/11:30pm 24.5 ENE 19 26 997.7 - 129.4 - Partly cloudy 2 - - - -
30/11:24pm 24.5 ENE 19 26 997.9 - 128.6 - Partly cloudy 3 - - - -
30/11:11pm 24.6 ENE 20 27 998.2 - 127.6 - Partly cloudy 4 - - - -
30/11:00pm 24.5 ENE 23 31 998.3 - 127.4 - Partly cloudy 3 - - - -
30/10:34pm 25.0 NE 23 33 998.8 - 124.8 - Partly cloudy 5 - - - -
30/10:30pm 24.8 NE 24 33 998.8 - 124.8 - Partly cloudy 4 - - - -
30/10:10pm 24.6 NE 21 33 999.0 - 124.4 - Partly cloudy 2 - - - -
30/10:00pm 24.6 ENE 17 26 999.5 - 120.4 - Partly cloudy 1 - - - -
30/09:59pm 24.6 E 17 26 999.7 - 119.8 - Partly cloudy 1 - - - -
30/09:33pm 24.5 E 20 30 1000.3 - 97.4 - Cloudy 4 - - - -
30/09:30pm 24.5 ESE 21 30 1000.4 - 96.8 - Cloudy 4 - - - -
30/09:06pm 24.4 ESE 17 28 1001.2 - 93.6 - Partly cloudy 2 - - - -
30/09:00pm 24.4 E 16 25 1001.7 - 91.4 Rain Cloudy 2 - - - -
30/08:30pm 24.6 ESE 16 21 1002.0 - 73.6 - Partly cloudy 2 - - - -
30/08:00pm 24.8 E 15 24 1002.9 - 64.4 - Partly cloudy 3 - - - -
30/07:30pm 24.9 ENE 17 22 1002.9 - 56.2 - Partly cloudy 3 - - - -
30/07:00pm 25.0 ENE 19 23 1003.2 - 50.8 - Partly cloudy 3 - - - -
30/06:30pm 25.0 ENE 18 25 1003.2 - 45.4 - Partly cloudy 2 - - - -
30/06:00pm 25.3 ENE 17 23 1003.3 - 36.0 Rain Cloudy 6 - - - -
30/05:30pm 25.3 NE 16 21 1003.8 - 35.0 - Cloudy 5 - - - -
30/05:00pm 25.4 NE 18 26 1004.1 - 34.0 - Partly cloudy 5 - - - -
30/04:30pm 25.3 NE 19 26 1003.7 - 32.6 - Partly cloudy 5 - - - -
30/04:00pm 25.3 NE 18 25 1003.7 - 30.8 - Partly cloudy 5 - - - -
30/03:30pm 25.2 NE 19 27 1004.2 - 29.8 - Cloudy 6 - - - -
30/03:00pm 25.2 NE 19 23 1004.7 - 28.8 Rain Cloudy 6 - - - -
30/02:30pm 25.1 NE 19 27 1005.2 - 27.4 - Partly cloudy 5 - - - -
30/02:00pm 25.2 NE 19 26 1005.4 - 24.6 - Partly cloudy 5 - - - -
30/01:30pm 25.2 NE 18 23 1005.9 - 23.4 - Partly cloudy 5 - - - -
30/01:00pm 25.0 NE 17 24 1006.4 - 22.2 - Partly cloudy 4 - - - -
30/12:33pm 25.2 NNE 19 26 1006.9 - 19.8 - Partly cloudy 5 - - - -
30/12:30pm 25.1 NNE 20 26 1006.9 - 19.8 - Partly cloudy 5 - - - -
30/12:00pm 25.1 NE 22 30 1007.6 - 17.2 Rain Cloudy 4 - - - -
30/11:51am 25.1 NE 22 30 1007.5 - 16.6 - Partly cloudy 5 - - - -
30/11:30am 24.8 NE 18 26 1007.6 - 15.6 - Partly cloudy 4 - - - -
30/11:00am 24.9 NE 15 21 1008.7 - 12.6 - Partly cloudy 3 - - - -
30/10:48am 24.9 NE 15 21 1009.0 - 10.2 - Partly cloudy 5 - - - -
30/10:37am 24.6 NE 15 22 1009.1 - 9.2 - Partly cloudy 5 - - - -
30/10:30am 24.8 NE 15 19 1009.3 - 8.6 - Partly cloudy 4 - - - -
30/10:05am 24.7 NE 15 21 1010.0 - 6.0 - Partly cloudy 4 - - - -
30/10:00am 24.7 NE 15 21 1010.3 - 5.6 - Partly cloudy 4 - - - -
30/09:30am 24.6 NNE 15 21 1010.6 - 3.0 - Partly cloudy 5 - - - -
30/09:20am 24.5 NNE 15 22 1010.6 - 2.2 - Partly cloudy 5 - - - -
30/09:00am 24.4 NNE 17 24 1010.6 - 75.0 Rain Cloudy 3 - - - -
30/08:30am 24.0 N 19 25 1011.2 - 70.8 - Partly cloudy 2 - - - -
30/08:04am 24.7 NNE 16 22 1011.0 - 53.2 - Partly cloudy 2 - - - -
30/08:00am 24.9 NNE 14 19 1011.0 - 51.6 - Partly cloudy 3 - - - -
30/07:39am 24.9 NNE 17 29 1010.7 - 47.2 - Partly cloudy 6 - - - -
30/07:37am 25.1 NNE 15 20 1010.8 - 47.2 - Partly cloudy 7 - - - -
30/07:30am 25.1 NNE 16 20 1010.7 - 46.8 - Partly cloudy 7 - - - -
30/07:00am 25.4 NNE 19 26 1010.6 - 45.2 - Partly cloudy 6 - - - -
30/06:59am 25.4 NNE 19 26 1010.6 - 45.0 - Partly cloudy 6 - - - -
30/06:39am 25.5 NNE 17 23 1010.1 - 44.6 - Partly cloudy 7 - - - -
30/06:30am 25.5 NNE 17 23 1010.0 - 44.0 - Partly cloudy 7 - - - -
30/06:29am 25.6 NNE 17 23 1010.0 - 44.0 - Partly cloudy 6 - - - -
30/06:00am 25.3 NE 17 23 1009.7 - 43.6 Showers Cloudy 10 - - - -
30/05:33am 24.7 NNE 19 25 1009.8 - 43.6 - Partly cloudy 10 - - - -
30/05:30am 24.8 NNE 21 29 1009.8 - 43.6 - Partly cloudy 10 - - - -
30/05:18am 25.0 NNE 16 26 1009.9 - 43.4 - Cloudy 5 - - - -
30/05:07am 25.3 NE 15 21 1009.7 - 42.6 - Cloudy 6 - - - -
30/05:00am 25.2 NE 15 20 1009.8 - 42.0 - Cloudy 8 - - - -
30/04:30am 24.8 NNE 15 21 1009.8 - 40.0 - Partly cloudy 3 - - - -
30/04:00am 24.9 NE 15 23 1009.7 - 33.6 - Partly cloudy 6 - - - -
30/03:46am 24.9 NE 16 21 1009.7 - 32.6 - Partly cloudy 6 - - - -
30/03:41am 24.8 NNE 15 22 1009.8 - 32.2 - Partly cloudy 8 - - - -
30/03:30am 24.8 NNE 15 20 1010.1 - 32.0 - Partly cloudy 6 - - - -
30/03:29am 24.8 NNE 16 20 1010.1 - 32.0 - Partly cloudy 6 - - - -
30/03:00am 24.6 NE 16 22 1010.2 - 30.0 Rain Cloudy 1 - - - -
30/02:39am 25.0 NNE 15 25 1010.3 - 20.0 - Partly cloudy 5 - - - -
30/02:38am 25.0 NNE 15 23 1010.3 - 19.8 - Partly cloudy 5 - - - -
30/02:31am 25.3 NE 14 21 1010.4 - 19.4 - Partly cloudy 6 - - - -
30/02:30am 25.3 NE 15 21 1010.4 - 19.4 - Partly cloudy 7 - - - -
30/02:17am 25.1 NE 15 21 1010.5 - 19.4 - Partly cloudy 10 - - - -
30/02:00am 25.1 NE 17 23 1010.6 - 19.2 - Partly cloudy 7 - - - -
30/01:53am 25.0 NE 17 23 1010.7 - 19.0 - Partly cloudy 7 - - - -
30/01:30am 24.8 NE 17 24 1011.0 - 18.4 - Partly cloudy 4 - - - -
30/01:00am 25.1 NNE 15 21 1011.5 - 15.6 - Partly cloudy 2 - - - -
30/12:30am 24.9 NNE 13 17 1011.8 - 4.8 - Partly cloudy 2 - - - -
30/12:12am 25.3 NNE 14 20 1011.9 - 2.0 - Partly cloudy 6 - - - -
30/12:09am 25.4 NNE 13 20 1011.8 - 2.0 - Partly cloudy 10 - - - -
30/12:00am 25.7 NNE 12 17 1011.9 - 2.0 - Cloudy 10 - - - -
 
Date/Time
EST
Temp
°C
Wind Pressure Rain since
9am
mm
Weather Cloud Vis
km
Sea
Height
m
Swell
Dir  Spd
kts
Gust
kts
hPa Trend Height
m
Period
s
Dir
29/11:30pm 25.9 NNE 13 18 1012.2 - 2.0 - Partly cloudy 10 - - - -
29/11:00pm 25.6 NNE 13 18 1012.3 - 2.0 - Partly cloudy 10 - - - -
29/10:30pm 25.6 NNE 15 21 1012.5 - 2.0 - Partly cloudy 10 - - - -
29/10:20pm 25.6 NE 16 21 1012.5 - 2.0 - Partly cloudy 10 - - - -
29/10:00pm 25.4 NNE 15 20 1012.7 - 2.0 - Partly cloudy 6 - - - -
29/09:53pm 25.4 NNE 17 21 1012.7 - 2.0 - Partly cloudy 6 - - - -
29/09:52pm 25.4 NNE 17 21 1012.7 - 2.0 - Partly cloudy 7 - - - -
29/09:33pm 25.8 NE 13 17 1012.9 - 1.8 - Partly cloudy 10 - - - -
29/09:30pm 26.1 NE 13 18 1012.9 - 1.8 - Partly cloudy 10 - - - -
29/09:00pm 26.0 NE 13 17 1012.9 - 1.8 - Cloudy 10 - - - -
29/08:30pm 26.0 ENE 13 17 1012.7 - 1.8 - Partly cloudy 10 - - - -
29/08:00pm 25.7 NE 12 17 1013.2 - 1.8 - Partly cloudy 10 - - - -
29/07:35pm 25.5 NE 10 13 1013.3 - 1.8 - Partly cloudy 10 - - - -
29/07:30pm 25.5 NE 9 13 1013.3 - 1.8 - Partly cloudy 10 - - - -
29/07:28pm 25.5 NE 9 13 1013.3 - 1.8 - Partly cloudy 10 - - - -
29/07:00pm 25.2 NE 12 16 1013.2 - 1.6 - Partly cloudy 4 - - - -
29/06:54pm 25.4 NE 11 15 1013.2 - 1.4 - Partly cloudy 6 - - - -
29/06:39pm 25.3 NE 10 13 1013.1 - 1.4 - Partly cloudy 10 - - - -
29/06:30pm 25.1 NE 11 16 1013.1 - 1.2 - Partly cloudy 7 - - - -
29/06:24pm 25.2 NE 13 17 1013.0 - 1.2 - Partly cloudy 6 - - - -
29/06:17pm 25.5 NE 13 18 1012.9 - 1.0 - Partly cloudy 10 - - - -
29/06:00pm 25.8 NE 13 17 1012.8 - 1.0 - Cloudy 10 - - - -
29/05:30pm 25.9 NE 13 17 1012.6 - 1.0 - Partly cloudy 10 - - - -
29/05:00pm 25.2 ENE 6 8 1012.5 - 1.0 - Partly cloudy 10 - - - -
29/04:59pm 25.1 ENE 6 9 1012.5 - 1.0 - Partly cloudy 10 - - - -
29/04:48pm 24.9 ENE 8 11 1012.4 - 1.0 - Partly cloudy 6 - - - -
29/04:30pm 25.3 NNE 13 16 1012.5 - 0.8 - Partly cloudy - - - - -
29/04:00pm 26.3 NNE 13 16 1012.2 - 0.8 - Partly cloudy - - - - -
29/03:30pm 27.3 NE 12 16 1012.1 - 0.8 - Partly cloudy - - - - -
29/03:00pm 27.9 NE 13 16 1012.2 - 0.8 - Cloudy 10 - - - -
29/02:30pm 27.5 NE 13 16 1012.3 - 0.8 - Partly cloudy 10 - - - -
29/02:00pm 27.5 NE 11 15 1012.4 - 0.8 - Partly cloudy 10 - - - -
29/01:41pm 26.5 ENE 10 13 1012.6 - 0.8 - Partly cloudy 10 - - - -
29/01:30pm 26.2 ENE 7 13 1012.9 - 0.8 - Partly cloudy 10 - - - -
29/01:00pm 27.5 ENE 11 14 1013.1 - 0.0 - Partly cloudy 10 - - - -
29/12:30pm 27.9 NE 11 13 1013.5 - 0.0 - Partly cloudy 10 - - - -
29/12:00pm 28.1 NE 9 12 1013.9 - 0.0 - Partly cloudy 10 - - - -
29/11:30am 28.4 NE 9 11 1014.3 - 0.0 - Partly cloudy 10 - - - -
29/11:00am 27.7 NE 8 10 1014.7 - 0.0 - Partly cloudy 10 - - - -
29/10:30am 28.0 NE 9 11 1014.9 - 0.0 - Partly cloudy 10 - - - -
29/10:00am 28.2 NE 8 10 1015.0 - 0.0 - Partly cloudy 10 - - - -
29/09:30am 27.5 NE 8 11 1015.0 - 0.0 - Partly cloudy 10 - - - -
29/09:00am 27.0 NE 7 9 1014.9 - 0.0 - Mostly clear 10 - - - -
29/08:30am 25.9 W 3 4 1014.8 - 0.0 - Partly cloudy 10 - - - -
29/08:00am 24.8 WSW 4 5 1014.6 - 0.0 - - 10 - - - -
29/07:30am 23.1 SW 1 3 1014.5 - 0.0 - Partly cloudy 10 - - - -
29/07:00am 21.8 SW 1 4 1014.2 - 0.0 - Partly cloudy 10 - - - -
29/06:30am 21.5 SSW 2 4 1013.9 - 0.0 - Partly cloudy 10 - - - -
29/06:00am 21.4 CALM 0 0 1013.7 - 0.0 - Mostly clear 10 - - - -
29/05:30am 21.4 SSW 2 3 1013.5 - 0.0 - Partly cloudy 10 - - - -
29/05:00am 21.1 SW 1 3 1013.1 - 0.0 - - 10 - - - -
29/04:30am 21.3 WSW 2 4 1013.0 - 0.0 - - 10 - - - -
29/04:00am 21.5 CALM 0 0 1012.8 - 0.0 - Partly cloudy 10 - - - -
29/03:30am 21.6 CALM 0 3 1012.6 - 0.0 - Partly cloudy 10 - - - -
29/03:00am 21.6 WSW 2 4 1012.6 - 0.0 - - 10 - - - -
29/02:30am 21.9 WSW 5 6 1012.8 - 0.0 - Partly cloudy 10 - - - -
29/02:00am 22.2 WSW 5 7 1013.1 - 0.0 - Partly cloudy 10 - - - -
29/01:30am 22.4 WSW 5 6 1013.3 - 0.0 - Partly cloudy 10 - - - -
29/01:00am 22.7 W 4 5 1013.6 - 0.0 - Partly cloudy 10 - - - -
29/12:30am 23.1 W 4 5 1013.7 - 0.0 - Partly cloudy 10 - - - -
29/12:00am 23.2 WSW 3 4 1013.9 - 0.0 - Cloudy 10 - - - -
 
Date/Time
EST
Temp
°C
Wind Pressure Rain since
9am
mm
Weather Cloud Vis
km
Sea
Height
m
Swell
Dir  Spd
kts
Gust
kts
hPa Trend Height
m
Period
s
Dir
28/11:30pm 23.1 W 3 5 1013.9 - 0.0 - Partly cloudy 10 - - - -
28/11:00pm 23.1 W 3 5 1013.9 - 0.0 - Partly cloudy 10 - - - -
28/10:30pm 23.7 WSW 4 6 1014.1 - 0.0 - Partly cloudy 10 - - - -
28/10:00pm 23.6 WSW 5 6 1014.2 - 0.0 - Partly cloudy 10 - - - -
28/09:30pm 23.7 WSW 5 6 1014.2 - 0.0 - Partly cloudy 10 - - - -
28/09:00pm 23.6 WSW 4 6 1014.3 - 0.0 - Cloudy 10 - - - -
28/08:30pm 23.6 WSW 4 5 1014.1 - 0.0 - Cloudy 10 - - - -
28/08:00pm 23.5 W 4 5 1014.0 - 0.0 - Partly cloudy 10 - - - -
28/07:30pm 24.3 NNE 4 7 1013.5 - 0.0 - Partly cloudy 10 - - - -
28/07:00pm 25.4 NNE 5 6 1013.4 - 0.0 - Partly cloudy 10 - - - -
28/06:30pm 25.5 NE 6 8 1013.0 - 0.0 - - 10 - - - -
28/06:00pm 25.5 NE 6 8 1012.9 - 0.0 - - 10 - - - -
28/05:30pm 25.8 NNE 7 9 1012.7 - 0.0 - - 10 - - - -
28/05:00pm 26.4 NNE 8 10 1012.3 - 0.0 - - 10 - - - -
28/04:30pm 26.7 NNE 9 12 1012.3 - 0.0 - - 10 - - - -
28/04:00pm 26.9 NNE 9 13 1012.1 - 0.0 - - 10 - - - -
28/03:30pm 27.2 NNE 10 12 1012.0 - 0.0 - - 10 - - - -
28/03:00pm 27.7 NE 9 12 1012.0 - 0.0 - - 10 - - - -
28/02:30pm 27.1 NE 9 11 1012.0 - 0.0 - - 10 - - - -
28/02:00pm 28.0 NE 9 12 1012.3 - 0.0 - - 10 - - - -
28/01:30pm 27.5 NNE 9 12 1012.6 - 0.0 - - 10 - - - -
28/01:00pm 28.2 NE 9 13 1012.9 - 0.0 - - 10 - - - -
28/12:30pm 27.4 NE 9 11 1013.0 - 0.0 - - 10 - - - -
28/12:00pm 27.6 NE 8 11 1013.3 - 0.0 - - 10 - - - -
28/11:30am 27.4 NNE 9 11 1013.7 - 0.0 - - 10 - - - -
28/11:00am 27.0 NNE 9 11 1014.3 - 0.0 - - 10 - - - -

Other Formats:

Comma delimited format used in spreadsheet applications
http://www.bom.gov.au/fwo/IDQ60701/IDQ60701.94592.axf

JavaScript Object Notation format (JSON) in row-major order
http://www.bom.gov.au/fwo/IDQ60701/IDQ60701.94592.json